METAR Data
IDs: Format: Raw Decoded Include TAF

Data at: 0129 UTC 05 Jul 2022

KRNP 050115Z AUTO 14004KT 10SM SCT120 27/15 A2999 RMK AO2 T02700147